CDT,Max TemperatureF,Mean TemperatureF,Min TemperatureF,Max Dew PointF,MeanDew PointF,Min DewpointF,Max Humidity, Mean Humidity, Min Humidity, Max Sea Level PressureIn, Mean Sea Level PressureIn, Min Sea Level PressureIn, Max VisibilityMiles, Mean VisibilityMiles, Min VisibilityMiles, Max Wind SpeedMPH, Mean Wind SpeedMPH, Max Gust SpeedMPH,PrecipitationIn, CloudCover, Events, WindDirDegrees
2013-5-1,81,69,57,59,55,50,80,63,45,30.05,30.00,29.93,10,10,10,16,8,22,0.00,3,,141
2013-5-2,65,51,37,57,46,36,100,86,72,30.19,30.14,30.04,10,9,3,18,11,23,0.08,7,Rain,326
2013-5-3,38,36,34,36,35,33,100,96,92,30.12,29.96,29.85,10,5,2,16,10,21,0.89,8,Rain,316
2013-5-4,49,41,33,40,35,32,100,80,60,29.99,29.88,29.82,10,8,1,12,4,20,0.02,8,Rain,146
2013-5-5,54,47,40,54,47,39,100,93,86,30.01,29.96,29.92,10,6,0,17,7,22,0.21,8,Fog-Rain,321
2013-5-6,70,62,53,54,52,50,93,73,53,30.01,29.96,29.92,10,8,2,17,9,23,0.02,7,Rain,346
2013-5-7,78,66,54,54,51,48,86,62,38,30.03,29.99,29.96,10,10,10,12,5,15,0.00,5,,333
2013-5-8,76,64,51,59,55,49,93,70,46,30.03,29.99,29.95,10,10,10,18,7,24,0.01,3,Rain,186
2013-5-9,75,67,58,61,58,56,93,73,53,29.96,29.91,29.84,10,9,2,26,9,35,0.56,6,Rain-Thunderstorm,207
2013-5-10,65,59,52,59,54,50,100,86,72,30.01,29.94,29.85,10,10,8,17,8,21,0.01,7,,316
2013-5-11,68,56,44,52,45,31,100,66,32,30.18,30.05,30.01,10,8,0,22,10,29,0.00,3,Fog,316
2013-5-12,61,48,35,37,31,27,76,53,29,30.26,30.20,30.15,10,10,10,16,5,25,0.00,0,,308
2013-5-13,74,56,38,49,41,33,85,60,35,30.21,30.12,30.00,10,10,10,15,7,18,0.00,1,,175
2013-5-14,88,73,58,53,50,48,72,50,27,29.98,29.91,29.86,10,10,10,25,14,32,0.00,0,,222
2013-5-15,85,73,61,65,59,49,73,61,49,29.94,29.89,29.83,10,10,10,20,10,24,0.00,1,,217
2013-5-16,75,68,60,63,59,50,93,76,59,29.93,29.89,29.87,10,10,10,17,7,23,0.00,4,,155
2013-5-17,75,66,57,64,61,55,100,84,68,29.96,29.92,29.87,10,8,1,9,4,12,0.00,6,,122
2013-5-18,81,71,60,68,64,59,100,81,62,29.99,29.92,29.83,10,7,0,16,8,21,0.00,2,Fog,138
2013-5-19,87,77,67,72,67,62,100,73,45,29.91,29.80,29.65,10,6,1,24,12,33,0.00,2,,158
2013-5-20,76,68,59,70,63,57,93,81,68,29.90,29.79,29.71,10,7,0,36,11,47,1.58,7,Fog-Rain-Thunderstorm,190
2013-5-21,73,66,59,64,60,58,90,78,66,29.78,29.74,29.66,10,10,10,22,10,31,0.00,1,,205
2013-5-22,70,63,55,59,56,52,100,80,59,29.90,29.78,29.70,10,10,9,20,10,24,0.00,6,,245
2013-5-23,67,59,51,56,53,49,100,84,67,30.21,30.07,29.89,10,10,10,18,9,25,0.00,5,,318
2013-5-24,69,59,48,51,44,39,100,67,33,30.39,30.30,30.21,10,9,6,15,7,20,0.00,1,,97
2013-5-25,73,59,45,60,51,39,84,71,58,30.26,30.20,30.08,10,10,10,18,10,23,0.00,3,Thunderstorm,148
2013-5-26,84,73,61,67,61,54,78,66,54,30.13,30.05,29.97,10,10,10,17,10,23,0.00,2,,185
2013-5-27,79,71,63,69,64,61,93,81,69,30.06,29.91,29.77,10,9,2,22,10,30,0.73,4,Rain-Thunderstorm,172
2013-5-28,79,73,67,68,65,62,84,76,67,29.88,29.83,29.74,10,10,5,23,13,31,0.13,2,Rain-Thunderstorm,180
2013-5-29,83,75,67,66,63,58,87,71,54,29.91,29.86,29.77,10,10,10,23,13,33,0.00,1,,169
2013-5-30,82,72,62,67,64,61,93,74,55,29.87,29.82,29.74,10,8,1,32,15,44,0.69,5,Rain-Thunderstorm,172
2013-5-31,81,71,61,72,65,61,100,87,74,29.89,29.80,29.70,10,8,1,20,10,24,2.20,6,Rain-Thunderstorm,139